Sejmchan, Russia
Current Conditions -  °F | °C
As of 11:00 PM on Friday 21 Nov 2014 (Local Time) from UHMM Reporting Station
Clear Clear  
Wind Chill: -15°   Ceiling: Unl
Heat Index: -15°   Visibility: 6mi
Dew Point: -20°   Wind: 0mph
Humidity: 77%   Direction: NA
Pressure: 29.97"   Gusts: NA
Location:  62.92°N, 152.42°E
Report Text: UHMM 211200Z 00000MPS 9999 SKC M26/M29 Q1015 RMK QFE746
Loading
Personal Weather Stations






























Interactive Weather Map New forecast layout! Learn more

10-Day Weather Forecast

Advertisements
Track Severe Weather on mobile